Time;durP1;ratioP1;P1;durP2;ratioP2;P2;SDS_P1;SDS_P2;PMS_P1;PMS_P2;Temp;Humidity;BMP_temperature;BMP_pressure;BME280_temperature;BME280_humidity;BME280_pressure;Samples;Min_cycle;Max_cycle;Signal;HPM_P1;HPM_P2
2021/09/22 00:01:14;;;;;;;82.93;40.92;;;9.90;99.90;;;;;;4155632;28;20047;-75
2021/09/22 00:03:15;;;;;;;80.07;37.75;;;9.80;99.90;;;;;;4152399;28;20731;-74
2021/09/22 00:05:15;;;;;;;79.20;39.38;;;9.70;99.90;;;;;;4156178;28;20039;-74
2021/09/22 00:07:16;;;;;;;70.93;37.38;;;9.60;99.90;;;;;;4148472;28;20129;-74
2021/09/22 00:09:17;;;;;;;71.45;37.78;;;9.50;99.90;;;;;;4154980;28;20108;-75
2021/09/22 00:11:17;;;;;;;69.65;37.83;;;9.50;99.90;;;;;;4151416;28;20035;-75
2021/09/22 00:13:18;;;;;;;78.20;40.35;;;9.50;99.90;;;;;;4153291;28;20024;-75
2021/09/22 00:15:21;;;;;;;78.95;39.03;;;9.50;99.90;;;;;;4153621;28;20029;-75
2021/09/22 00:17:22;;;;;;;74.72;39.85;;;9.50;99.90;;;;;;4153867;28;20421;-74
2021/09/22 00:19:22;;;;;;;65.78;36.53;;;9.50;99.90;;;;;;4152841;28;20040;-75
2021/09/22 00:21:23;;;;;;;72.13;39.33;;;9.50;99.90;;;;;;4149000;28;20064;-75
2021/09/22 00:23:24;;;;;;;79.60;40.70;;;9.50;99.90;;;;;;4153575;28;20053;-74
2021/09/22 00:25:25;;;;;;;81.20;41.67;;;9.40;99.90;;;;;;4148094;28;20028;-74
2021/09/22 00:27:26;;;;;;;80.82;41.22;;;9.40;99.90;;;;;;4151677;28;20508;-74
2021/09/22 00:29:26;;;;;;;75.32;37.78;;;9.40;99.90;;;;;;4149380;28;20033;-75
2021/09/22 00:31:28;;;;;;;71.30;37.00;;;9.30;99.90;;;;;;4149945;28;20083;-74
2021/09/22 00:33:29;;;;;;;75.78;38.60;;;9.30;99.90;;;;;;4152498;28;20113;-75
2021/09/22 00:35:29;;;;;;;75.55;39.60;;;9.20;99.90;;;;;;4154319;28;20036;-75
2021/09/22 00:37:30;;;;;;;80.90;42.60;;;9.20;99.90;;;;;;4154019;28;20111;-74
2021/09/22 00:39:34;;;;;;;70.90;39.83;;;9.20;99.90;;;;;;4152225;28;20036;-74
2021/09/22 00:41:35;;;;;;;82.50;39.53;;;9.10;99.90;;;;;;4151527;28;20083;-75
2021/09/22 00:43:35;;;;;;;81.13;41.50;;;9.10;99.90;;;;;;4151342;28;20041;-75
2021/09/22 00:45:36;;;;;;;80.75;40.65;;;9.10;99.90;;;;;;4153739;28;20041;-74
2021/09/22 00:47:37;;;;;;;86.00;44.85;;;9.00;99.90;;;;;;4153029;28;20033;-74
2021/09/22 00:49:37;;;;;;;80.30;38.65;;;9.00;99.90;;;;;;4155005;28;20033;-74
2021/09/22 00:51:39;;;;;;;90.78;41.53;;;9.00;99.90;;;;;;4151555;28;20880;-74
2021/09/22 00:53:40;;;;;;;75.90;40.00;;;9.00;99.90;;;;;;4154080;28;20036;-74
2021/09/22 00:55:40;;;;;;;73.43;36.58;;;9.00;99.90;;;;;;4151413;28;20033;-75
2021/09/22 00:57:54;;;;;;;67.57;35.95;;;8.90;99.90;;;;;;4154083;28;20560;-75
2021/09/22 00:59:54;;;;;;;81.05;42.30;;;8.90;99.90;;;;;;4149317;28;20033;-75
2021/09/22 01:01:55;;;;;;;88.53;44.10;;;8.90;99.90;;;;;;4153129;28;20116;-75
2021/09/22 01:03:56;;;;;;;84.28;42.55;;;8.90;99.90;;;;;;4152289;28;20503;-75
2021/09/22 01:05:59;;;;;;;84.05;38.20;;;8.90;99.90;;;;;;4151526;28;20127;-75
2021/09/22 01:08:01;;;;;;;81.93;40.70;;;8.80;99.90;;;;;;4153709;28;20044;-74
2021/09/22 01:10:03;;;;;;;74.70;38.63;;;8.80;99.90;;;;;;4150726;28;20029;-74
2021/09/22 01:12:05;;;;;;;77.20;39.17;;;8.80;99.90;;;;;;4155609;28;20042;-74
2021/09/22 01:14:07;;;;;;;89.38;41.45;;;8.70;99.90;;;;;;4152842;28;20602;-74
2021/09/22 01:16:08;;;;;;;89.47;44.60;;;8.70;99.90;;;;;;4155140;28;20111;-74
2021/09/22 01:18:18;;;;;;;86.88;41.33;;;8.60;99.90;;;;;;4154158;28;20043;-75
2021/09/22 01:20:19;;;;;;;72.07;36.53;;;8.60;99.90;;;;;;4152249;28;20044;-74
2021/09/22 01:22:19;;;;;;;79.18;39.45;;;8.50;99.90;;;;;;4148219;28;20029;-75
2021/09/22 01:24:21;;;;;;;75.05;35.97;;;8.50;99.90;;;;;;4154207;28;20037;-74
2021/09/22 01:26:21;;;;;;;75.70;38.75;;;8.40;99.90;;;;;;4152595;28;20046;-74
2021/09/22 01:28:26;;;;;;;65.00;35.25;;;8.40;99.90;;;;;;4154374;28;20053;-75
2021/09/22 01:30:27;;;;;;;76.32;37.67;;;8.40;99.90;;;;;;4150939;28;20038;-74
2021/09/22 01:32:28;;;;;;;83.00;38.38;;;8.30;99.90;;;;;;4150239;28;20042;-74
2021/09/22 01:34:28;;;;;;;83.72;40.10;;;8.30;99.90;;;;;;4155404;28;20044;-75
2021/09/22 01:36:29;;;;;;;92.75;43.13;;;8.30;99.90;;;;;;4152433;28;20120;-74
2021/09/22 01:38:30;;;;;;;83.43;39.13;;;8.30;99.90;;;;;;4155442;28;20590;-75
2021/09/22 01:40:30;;;;;;;78.60;39.47;;;8.20;99.90;;;;;;4153173;28;20088;-75
2021/09/22 01:42:31;;;;;;;85.03;39.47;;;8.20;99.90;;;;;;4151214;28;20025;-75
2021/09/22 01:44:36;;;;;;;92.32;43.03;;;8.20;99.90;;;;;;4149047;28;20086;-75
2021/09/22 01:46:36;;;;;;;91.72;42.13;;;8.20;99.90;;;;;;4153650;28;20722;-74
2021/09/22 01:48:38;;;;;;;96.30;42.75;;;8.30;99.90;;;;;;4153387;28;20053;-75
2021/09/22 01:50:38;;;;;;;103.32;46.53;;;8.30;99.90;;;;;;4154690;28;20037;-75
2021/09/22 01:52:41;;;;;;;104.55;45.75;;;8.30;99.90;;;;;;4152630;28;20044;-75
2021/09/22 01:54:41;;;;;;;99.78;44.92;;;8.30;99.90;;;;;;4155298;28;20025;-75
2021/09/22 01:56:42;;;;;;;107.47;46.00;;;8.40;99.90;;;;;;4151939;28;20562;-73
2021/09/22 01:58:43;;;;;;;104.25;48.25;;;8.40;99.90;;;;;;4153926;28;20494;-75
2021/09/22 02:00:43;;;;;;;94.70;44.17;;;8.40;99.90;;;;;;4157865;28;20039;-75
2021/09/22 02:02:44;;;;;;;93.10;43.20;;;8.40;99.90;;;;;;4156072;28;20045;-73
2021/09/22 02:04:44;;;;;;;122.63;51.20;;;8.40;99.90;;;;;;4155409;28;20068;-73
2021/09/22 02:06:45;;;;;;;97.40;43.53;;;8.40;99.90;;;;;;4155161;28;20417;-73
2021/09/22 02:08:46;;;;;;;111.32;47.42;;;8.40;99.90;;;;;;4155478;28;20509;-73
2021/09/22 02:10:47;;;;;;;113.30;48.38;;;8.40;99.90;;;;;;4155203;28;21623;-74
2021/09/22 02:12:48;;;;;;;103.82;46.90;;;8.40;99.90;;;;;;4155478;28;20041;-74
2021/09/22 02:14:48;;;;;;;98.43;43.42;;;8.30;99.90;;;;;;4156415;28;20491;-74
2021/09/22 02:16:49;;;;;;;97.72;43.10;;;8.30;99.90;;;;;;4154149;28;20128;-74
2021/09/22 02:18:51;;;;;;;101.78;41.90;;;8.20;99.90;;;;;;4155953;28;20076;-73
2021/09/22 02:20:52;;;;;;;101.53;45.03;;;8.20;99.90;;;;;;4153407;28;20607;-74
2021/09/22 02:22:52;;;;;;;101.35;43.22;;;8.20;99.90;;;;;;4151444;28;20053;-74
2021/09/22 02:24:53;;;;;;;102.85;40.20;;;8.10;99.90;;;;;;4153862;28;20413;-74
2021/09/22 02:26:54;;;;;;;108.53;44.70;;;8.10;99.90;;;;;;4146381;28;20557;-75
2021/09/22 02:28:54;;;;;;;110.22;46.63;;;8.10;99.90;;;;;;4153443;28;20112;-74
2021/09/22 02:30:55;;;;;;;116.93;48.45;;;8.10;99.90;;;;;;4149824;28;20038;-74
2021/09/22 02:32:56;;;;;;;106.20;44.78;;;8.10;99.90;;;;;;4151506;28;20037;-73
2021/09/22 02:34:57;;;;;;;99.22;42.15;;;8.10;99.90;;;;;;4156860;28;20040;-74
2021/09/22 02:36:57;;;;;;;103.38;45.67;;;8.10;99.90;;;;;;4154288;28;20675;-74
2021/09/22 02:38:58;;;;;;;90.25;40.40;;;8.10;99.90;;;;;;4152849;28;20029;-73
2021/09/22 02:40:58;;;;;;;107.85;47.22;;;8.10;99.90;;;;;;4151009;28;20413;-73
2021/09/22 02:42:59;;;;;;;126.70;50.63;;;8.10;99.90;;;;;;4150723;28;20048;-73
2021/09/22 02:45:00;;;;;;;105.97;43.92;;;8.00;99.90;;;;;;4155420;28;20124;-74
2021/09/22 02:47:00;;;;;;;106.68;48.20;;;8.00;99.90;;;;;;4153750;28;20058;-74
2021/09/22 02:49:01;;;;;;;98.68;43.88;;;8.00;99.90;;;;;;4155283;28;20076;-74
2021/09/22 02:51:02;;;;;;;106.97;48.13;;;8.00;99.90;;;;;;4149277;28;20044;-74
2021/09/22 02:53:03;;;;;;;106.10;46.40;;;7.90;99.90;;;;;;4152381;28;20107;-74
2021/09/22 02:55:03;;;;;;;109.85;49.83;;;7.90;99.90;;;;;;4152541;28;21423;-74
2021/09/22 02:57:04;;;;;;;115.78;48.38;;;7.90;99.90;;;;;;4155523;28;20041;-73
2021/09/22 02:59:08;;;;;;;109.53;45.35;;;7.90;99.90;;;;;;4152467;28;20569;-73
2021/09/22 03:01:09;;;;;;;102.13;43.33;;;7.90;99.90;;;;;;4154078;28;20029;-73
2021/09/22 03:03:09;;;;;;;110.88;45.42;;;7.80;99.90;;;;;;4154835;28;20040;-74
2021/09/22 03:05:10;;;;;;;114.72;48.67;;;7.80;99.90;;;;;;4157449;28;20103;-74
2021/09/22 03:07:11;;;;;;;109.90;45.38;;;7.80;99.90;;;;;;4153536;28;20107;-74
2021/09/22 03:09:12;;;;;;;118.05;48.20;;;7.70;99.90;;;;;;4156248;28;20041;-74
2021/09/22 03:11:12;;;;;;;121.22;49.70;;;7.70;99.90;;;;;;4153036;28;20500;-73
2021/09/22 03:13:13;;;;;;;112.88;48.53;;;7.80;99.90;;;;;;4155722;28;20075;-73
2021/09/22 03:15:14;;;;;;;101.97;42.58;;;7.80;99.90;;;;;;4155421;28;20722;-73
2021/09/22 03:17:15;;;;;;;103.72;44.25;;;7.70;99.90;;;;;;4154381;28;20464;-73
2021/09/22 03:19:16;;;;;;;109.32;47.47;;;7.70;99.90;;;;;;4156497;28;20064;-74
2021/09/22 03:21:16;;;;;;;107.30;43.95;;;7.70;99.90;;;;;;4155088;28;20040;-73
2021/09/22 03:23:17;;;;;;;111.30;47.28;;;7.60;99.90;;;;;;4154154;28;20044;-73
2021/09/22 03:25:18;;;;;;;95.88;42.40;;;7.60;99.90;;;;;;4153161;28;20029;-74
2021/09/22 03:27:19;;;;;;;98.25;44.17;;;7.60;99.90;;;;;;4155656;28;20366;-74
2021/09/22 03:29:19;;;;;;;97.63;44.58;;;7.60;99.90;;;;;;4152149;28;20108;-74
2021/09/22 03:31:20;;;;;;;126.40;50.50;;;7.50;99.90;;;;;;4157201;28;20036;-73
2021/09/22 03:33:21;;;;;;;118.43;50.70;;;7.50;99.90;;;;;;4155737;28;20042;-74
2021/09/22 03:35:21;;;;;;;122.53;51.03;;;7.60;99.90;;;;;;4153223;28;20067;-74
2021/09/22 03:37:23;;;;;;;135.68;55.05;;;7.50;99.90;;;;;;4156149;28;20198;-74
2021/09/22 03:39:24;;;;;;;128.93;54.95;;;7.60;99.90;;;;;;4158185;28;20373;-74
2021/09/22 03:41:25;;;;;;;143.57;58.55;;;7.70;99.90;;;;;;4156649;28;20044;-74
2021/09/22 03:43:26;;;;;;;176.50;67.28;;;7.80;99.90;;;;;;4156251;28;20041;-74
2021/09/22 03:45:27;;;;;;;161.60;62.38;;;7.90;99.90;;;;;;4156973;28;20029;-73
2021/09/22 03:47:27;;;;;;;149.57;59.35;;;8.10;99.90;;;;;;4155108;28;20044;-74
2021/09/22 03:49:28;;;;;;;179.82;68.43;;;8.10;99.90;;;;;;4155460;28;20409;-73
2021/09/22 03:51:28;;;;;;;182.50;77.18;;;8.20;99.90;;;;;;4154911;28;20044;-73
2021/09/22 03:53:29;;;;;;;198.93;84.20;;;8.40;99.90;;;;;;4156561;28;20041;-74
2021/09/22 03:55:29;;;;;;;207.38;82.70;;;8.50;99.90;;;;;;4154119;28;20029;-73
2021/09/22 03:57:30;;;;;;;221.32;88.18;;;8.70;99.90;;;;;;4157326;28;20036;-74
2021/09/22 03:59:31;;;;;;;213.48;85.75;;;8.80;99.90;;;;;;4154350;28;20392;-73
2021/09/22 04:01:32;;;;;;;220.75;86.57;;;9.00;99.90;;;;;;4156109;28;20155;-74
2021/09/22 04:03:32;;;;;;;199.50;82.47;;;9.10;99.90;;;;;;4156012;28;20037;-74
2021/09/22 04:05:33;;;;;;;218.07;86.45;;;9.20;99.90;;;;;;4156360;28;20047;-74
2021/09/22 04:07:34;;;;;;;235.43;89.35;;;9.20;99.90;;;;;;4156347;28;20095;-74
2021/09/22 04:09:35;;;;;;;204.32;82.28;;;9.20;99.90;;;;;;4156338;28;20032;-74
2021/09/22 04:11:35;;;;;;;202.55;80.15;;;9.20;99.90;;;;;;4155161;28;20030;-73
2021/09/22 04:13:36;;;;;;;212.20;86.18;;;9.10;99.90;;;;;;4154678;28;20138;-74
2021/09/22 04:15:37;;;;;;;225.07;88.10;;;9.00;99.90;;;;;;4156263;28;20037;-73
2021/09/22 04:17:38;;;;;;;194.82;83.43;;;9.00;99.90;;;;;;4153765;28;20094;-74
2021/09/22 04:19:38;;;;;;;217.32;82.97;;;9.00;99.90;;;;;;4154369;28;20376;-73
2021/09/22 04:21:39;;;;;;;194.73;81.07;;;8.90;99.90;;;;;;4151671;28;20033;-74
2021/09/22 04:23:40;;;;;;;211.75;84.07;;;8.90;99.90;;;;;;4157453;28;20033;-74
2021/09/22 04:25:41;;;;;;;209.25;83.35;;;8.90;99.90;;;;;;4153387;28;20040;-74
2021/09/22 04:27:41;;;;;;;195.27;81.40;;;8.80;99.90;;;;;;4153243;28;20025;-74
2021/09/22 04:29:42;;;;;;;203.25;78.53;;;8.70;99.90;;;;;;4152654;28;20482;-74
2021/09/22 04:31:43;;;;;;;202.13;79.88;;;8.60;99.90;;;;;;4154010;28;20476;-74
2021/09/22 04:33:44;;;;;;;194.85;75.90;;;8.60;99.90;;;;;;4151388;28;20067;-74
2021/09/22 04:35:44;;;;;;;180.18;71.15;;;8.50;99.90;;;;;;4151699;28;20041;-74
2021/09/22 04:37:47;;;;;;;156.50;67.70;;;8.50;99.90;;;;;;4154049;28;20051;-73
2021/09/22 04:39:48;;;;;;;196.40;77.93;;;8.50;99.90;;;;;;4154723;28;20056;-74
2021/09/22 04:41:48;;;;;;;193.10;79.32;;;8.50;99.90;;;;;;4151823;28;20052;-74
2021/09/22 04:43:49;;;;;;;183.68;71.07;;;8.60;99.90;;;;;;4153824;28;20041;-74
2021/09/22 04:45:49;;;;;;;189.82;72.95;;;8.60;99.90;;;;;;4154210;28;20044;-74
2021/09/22 04:47:50;;;;;;;169.45;67.97;;;8.50;99.90;;;;;;4152319;28;20055;-74
2021/09/22 04:49:51;;;;;;;180.02;69.72;;;8.50;99.90;;;;;;4156245;28;20029;-74
2021/09/22 04:51:51;;;;;;;180.75;72.35;;;8.40;99.90;;;;;;4149057;28;20033;-74
2021/09/22 04:53:52;;;;;;;154.90;67.10;;;8.40;99.90;;;;;;4152213;28;20040;-74
2021/09/22 04:55:52;;;;;;;164.48;66.40;;;8.40;99.90;;;;;;4152609;28;20033;-74
2021/09/22 04:57:53;;;;;;;147.45;61.13;;;8.30;99.90;;;;;;4151550;28;20040;-74
2021/09/22 04:59:54;;;;;;;137.77;56.22;;;8.30;99.90;;;;;;4152594;28;20061;-74
2021/09/22 05:01:54;;;;;;;156.27;57.25;;;8.30;99.90;;;;;;4152140;28;20072;-74
2021/09/22 05:03:55;;;;;;;151.07;58.17;;;8.40;99.90;;;;;;4151164;28;20040;-74
2021/09/22 05:05:57;;;;;;;146.63;54.78;;;8.40;99.90;;;;;;4152626;28;20465;-73
2021/09/22 05:08:00;;;;;;;130.73;55.55;;;8.40;99.90;;;;;;4153398;28;20754;-74
2021/09/22 05:10:00;;;;;;;117.90;52.63;;;8.50;99.90;;;;;;4153323;28;20043;-74
2021/09/22 05:12:01;;;;;;;133.95;56.38;;;8.40;99.90;;;;;;4155364;28;20120;-74
2021/09/22 05:14:02;;;;;;;122.20;53.72;;;8.40;99.90;;;;;;4155275;28;20497;-74
2021/09/22 05:16:03;;;;;;;126.57;54.33;;;8.30;99.90;;;;;;4155013;28;20052;-73
2021/09/22 05:18:03;;;;;;;120.50;50.97;;;8.30;99.90;;;;;;4157595;28;20065;-73
2021/09/22 05:20:04;;;;;;;125.90;54.58;;;8.20;99.90;;;;;;4155182;28;20456;-73
2021/09/22 05:22:05;;;;;;;128.50;55.08;;;8.10;99.90;;;;;;4151533;28;20168;-73
2021/09/22 05:24:06;;;;;;;130.60;57.85;;;8.10;99.90;;;;;;4153829;28;20073;-73
2021/09/22 05:26:06;;;;;;;141.60;62.13;;;8.10;99.90;;;;;;4153025;28;20047;-73
2021/09/22 05:28:07;;;;;;;133.57;55.50;;;8.10;99.90;;;;;;4152979;28;20411;-73
2021/09/22 05:30:08;;;;;;;139.82;59.00;;;8.10;99.90;;;;;;4157382;28;20099;-74
2021/09/22 05:32:09;;;;;;;139.52;60.10;;;8.20;99.90;;;;;;4156298;28;20116;-73
2021/09/22 05:34:10;;;;;;;156.50;68.88;;;8.10;99.90;;;;;;4155144;28;20061;-73
2021/09/22 05:36:10;;;;;;;139.18;61.00;;;8.10;99.90;;;;;;4155402;28;20477;-73
2021/09/22 05:38:11;;;;;;;145.75;64.82;;;8.10;99.90;;;;;;4158440;28;20451;-73
2021/09/22 05:40:12;;;;;;;128.05;57.08;;;8.10;99.90;;;;;;4153845;28;20128;-73
2021/09/22 05:42:12;;;;;;;141.25;58.22;;;8.10;99.90;;;;;;4156012;28;20111;-73
2021/09/22 05:44:13;;;;;;;141.00;60.78;;;8.10;99.90;;;;;;4157665;28;20086;-74
2021/09/22 05:46:14;;;;;;;140.32;55.63;;;8.10;99.90;;;;;;4152816;28;20041;-73
2021/09/22 05:48:14;;;;;;;141.25;59.13;;;8.10;99.90;;;;;;4154121;28;20389;-74
2021/09/22 05:50:15;;;;;;;150.10;64.68;;;8.10;99.90;;;;;;4158006;28;20048;-73
2021/09/22 05:52:16;;;;;;;148.70;60.75;;;8.20;99.90;;;;;;4157157;28;20116;-73
2021/09/22 05:54:17;;;;;;;148.80;62.45;;;8.20;99.90;;;;;;4155694;28;20037;-73
2021/09/22 05:56:17;;;;;;;146.85;62.95;;;8.30;99.90;;;;;;4157748;28;21502;-73
2021/09/22 05:58:19;;;;;;;150.98;61.83;;;8.30;99.90;;;;;;4154454;28;20059;-73
2021/09/22 06:00:20;;;;;;;160.07;63.50;;;8.40;99.90;;;;;;4157874;28;20492;-73
2021/09/22 06:02:21;;;;;;;162.18;66.03;;;8.40;99.90;;;;;;4155446;28;20108;-75
2021/09/22 06:04:21;;;;;;;140.93;60.03;;;8.50;99.90;;;;;;4157256;28;20072;-73
2021/09/22 06:06:22;;;;;;;154.18;66.40;;;8.50;99.90;;;;;;4154761;28;20041;-74
2021/09/22 06:08:22;;;;;;;144.38;61.42;;;8.60;99.90;;;;;;4156979;28;20037;-73
2021/09/22 06:10:23;;;;;;;155.18;64.93;;;8.60;99.90;;;;;;4156000;28;20358;-73
2021/09/22 06:12:24;;;;;;;149.15;62.13;;;8.60;99.90;;;;;;4154190;28;20042;-72
2021/09/22 06:14:24;;;;;;;157.20;62.55;;;8.60;99.90;;;;;;4168273;28;20518;-72
2021/09/22 06:16:26;;;;;;;165.60;72.57;;;8.70;99.90;;;;;;4169590;28;20041;-72
2021/09/22 06:18:27;;;;;;;172.35;68.72;;;8.70;99.90;;;;;;4160059;28;20033;-73
2021/09/22 06:20:28;;;;;;;172.55;70.30;;;8.80;99.90;;;;;;4155690;28;20051;-73
2021/09/22 06:22:29;;;;;;;159.02;66.05;;;8.80;99.90;;;;;;4160020;28;20037;-73
2021/09/22 06:24:30;;;;;;;174.35;73.82;;;8.90;99.90;;;;;;4156795;28;20411;-74
2021/09/22 06:26:30;;;;;;;173.52;75.28;;;8.90;99.90;;;;;;4157841;28;20043;-75
2021/09/22 06:28:33;;;;;;;144.85;65.10;;;9.00;99.90;;;;;;4149004;28;20094;-74
2021/09/22 06:30:33;;;;;;;170.23;73.50;;;9.00;99.90;;;;;;4150853;28;20030;-73
2021/09/22 06:32:35;;;;;;;176.88;77.45;;;9.10;99.90;;;;;;4149868;28;20163;-73
2021/09/22 06:34:36;;;;;;;177.20;73.03;;;9.10;99.90;;;;;;4156641;28;20033;-73
2021/09/22 06:36:37;;;;;;;158.73;70.35;;;9.20;99.90;;;;;;4155833;28;20048;-73
2021/09/22 06:38:37;;;;;;;184.57;78.85;;;9.30;99.90;;;;;;4156305;28;20044;-73
2021/09/22 06:40:38;;;;;;;182.10;78.05;;;9.30;99.90;;;;;;4155279;28;20025;-74
2021/09/22 06:42:39;;;;;;;193.57;74.25;;;9.40;99.90;;;;;;4157098;28;20039;-74
2021/09/22 06:44:39;;;;;;;187.95;76.75;;;9.50;99.90;;;;;;4156554;28;20041;-73
2021/09/22 06:46:40;;;;;;;188.90;78.90;;;9.60;99.90;;;;;;4152782;28;20037;-73
2021/09/22 06:48:40;;;;;;;181.43;78.40;;;9.70;99.90;;;;;;4153898;28;20051;-73
2021/09/22 06:50:41;;;;;;;196.02;81.07;;;9.80;99.90;;;;;;4152522;28;20133;-74
2021/09/22 06:52:42;;;;;;;188.02;79.13;;;9.90;99.90;;;;;;4155691;28;20029;-73
2021/09/22 06:54:43;;;;;;;171.70;76.93;;;10.00;99.90;;;;;;4152678;28;20179;-74
2021/09/22 06:56:43;;;;;;;190.50;77.03;;;10.10;99.90;;;;;;4157301;28;20048;-73
2021/09/22 06:58:44;;;;;;;172.95;73.32;;;10.20;99.90;;;;;;4155852;28;20049;-75
2021/09/22 07:00:44;;;;;;;171.93;74.72;;;10.30;99.90;;;;;;4156760;28;20027;-73
2021/09/22 07:02:45;;;;;;;172.27;75.22;;;10.40;99.90;;;;;;4157990;28;20408;-73
2021/09/22 07:04:46;;;;;;;177.90;78.68;;;10.40;99.90;;;;;;4161379;28;20658;-74
2021/09/22 07:06:46;;;;;;;162.88;72.55;;;10.60;99.90;;;;;;4161638;28;20049;-73
2021/09/22 07:08:47;;;;;;;169.65;75.55;;;10.60;99.90;;;;;;4162110;28;20084;-73
2021/09/22 07:10:48;;;;;;;166.95;74.13;;;10.70;99.90;;;;;;4157563;28;20113;-74
2021/09/22 07:12:50;;;;;;;162.35;77.28;;;10.90;99.90;;;;;;4156248;28;20066;-73
2021/09/22 07:14:51;;;;;;;169.82;74.40;;;10.90;99.90;;;;;;4144716;28;20045;-73
2021/09/22 07:16:51;;;;;;;175.98;74.57;;;11.00;99.90;;;;;;4135402;28;20148;-74
2021/09/22 07:18:52;;;;;;;181.27;73.70;;;11.00;99.90;;;;;;4129252;28;20482;-74
2021/09/22 07:20:53;;;;;;;168.52;75.20;;;11.10;99.90;;;;;;4129083;28;20037;-74
2021/09/22 07:22:54;;;;;;;165.90;76.93;;;11.30;99.90;;;;;;4132393;28;20033;-73
2021/09/22 07:24:54;;;;;;;181.50;81.18;;;11.40;99.90;;;;;;4127948;28;20040;-73
2021/09/22 07:26:55;;;;;;;169.55;78.03;;;11.60;99.90;;;;;;4133993;28;20132;-73
2021/09/22 07:28:56;;;;;;;167.45;80.47;;;11.80;99.90;;;;;;4146809;28;20033;-73
2021/09/22 07:30:56;;;;;;;155.38;74.55;;;11.90;99.90;;;;;;4154185;28;20036;-72
2021/09/22 07:32:59;;;;;;;166.32;75.28;;;11.90;99.90;;;;;;4159892;28;20045;-73
2021/09/22 07:35:00;;;;;;;159.52;71.85;;;12.00;99.90;;;;;;4152746;28;20094;-73
2021/09/22 07:37:07;;;;;;;141.98;69.95;;;12.00;99.90;;;;;;4174042;28;20040;-73
2021/09/22 07:39:07;;;;;;;132.35;70.80;;;12.10;99.90;;;;;;4170718;28;20041;-73
2021/09/22 07:41:08;;;;;;;137.00;68.90;;;12.10;99.90;;;;;;4158518;28;20397;-73
2021/09/22 07:43:09;;;;;;;126.28;66.30;;;12.20;99.90;;;;;;4150223;28;20038;-73
2021/09/22 07:45:11;;;;;;;122.75;65.03;;;12.40;99.90;;;;;;4172411;28;20040;-73
2021/09/22 07:47:13;;;;;;;124.90;64.57;;;12.50;99.90;;;;;;4173773;28;20529;-73
2021/09/22 07:49:14;;;;;;;119.82;64.50;;;12.60;99.90;;;;;;4168635;28;21302;-74
2021/09/22 07:51:15;;;;;;;118.75;61.53;;;12.70;99.90;;;;;;4169595;28;20041;-73
2021/09/22 07:53:16;;;;;;;113.82;60.58;;;12.80;99.90;;;;;;4172195;28;20673;-73
2021/09/22 07:55:17;;;;;;;104.18;57.75;;;12.90;99.90;;;;;;4167885;28;20091;-73
2021/09/22 07:57:18;;;;;;;101.65;57.40;;;12.90;99.90;;;;;;4170012;28;20108;-73
2021/09/22 07:59:18;;;;;;;95.97;53.35;;;13.10;99.90;;;;;;4169096;28;20079;-73
2021/09/22 08:01:19;;;;;;;92.05;52.92;;;13.10;99.90;;;;;;4171649;28;20028;-73
2021/09/22 08:03:20;;;;;;;89.63;51.47;;;13.20;99.90;;;;;;4171492;28;20380;-73
2021/09/22 08:05:21;;;;;;;90.97;53.80;;;13.30;99.90;;;;;;4173589;28;20098;-74
2021/09/22 08:07:21;;;;;;;85.25;51.55;;;13.40;99.90;;;;;;4178659;28;20060;-73
2021/09/22 08:09:22;;;;;;;80.28;51.60;;;13.50;99.90;;;;;;4176067;28;20485;-73
2021/09/22 08:11:23;;;;;;;75.78;49.00;;;13.60;99.90;;;;;;4178735;28;20039;-73
2021/09/22 08:13:23;;;;;;;77.93;49.55;;;13.70;99.90;;;;;;4163068;28;20052;-73
2021/09/22 08:15:24;;;;;;;70.07;46.17;;;13.80;99.90;;;;;;4160653;28;22413;-73
2021/09/22 08:17:25;;;;;;;70.80;46.92;;;13.90;99.90;;;;;;4170925;28;23764;-74
2021/09/22 08:19:26;;;;;;;70.20;46.75;;;14.00;99.90;;;;;;4170607;28;20140;-74
2021/09/22 08:21:26;;;;;;;61.85;46.58;;;14.10;99.90;;;;;;4170670;28;20032;-73
2021/09/22 08:23:28;;;;;;;64.00;43.78;;;14.20;99.90;;;;;;4170892;28;20032;-73
2021/09/22 08:25:29;;;;;;;60.97;45.33;;;14.30;99.90;;;;;;4170020;28;20028;-74
2021/09/22 08:27:30;;;;;;;57.40;41.58;;;14.50;99.90;;;;;;4170807;28;20037;-73
2021/09/22 08:29:32;;;;;;;57.50;42.30;;;14.60;99.90;;;;;;4169628;28;20058;-73
2021/09/22 08:31:32;;;;;;;53.83;41.67;;;14.70;99.90;;;;;;4169161;28;20102;-73
2021/09/22 08:33:33;;;;;;;53.47;39.05;;;14.80;99.90;;;;;;4168314;28;20045;-73
2021/09/22 08:35:33;;;;;;;47.80;36.90;;;15.00;99.90;;;;;;4169847;28;20110;-73
2021/09/22 08:37:34;;;;;;;45.92;36.58;;;15.20;99.90;;;;;;4169534;28;20029;-73
2021/09/22 08:39:35;;;;;;;44.38;33.85;;;15.30;99.90;;;;;;4169998;28;20500;-73
2021/09/22 08:41:35;;;;;;;42.28;32.38;;;15.30;99.90;;;;;;4169229;28;20029;-73
2021/09/22 08:43:36;;;;;;;43.25;33.50;;;15.40;99.90;;;;;;4155869;28;20045;-73
2021/09/22 08:45:37;;;;;;;42.88;31.25;;;15.50;99.90;;;;;;4168281;28;20091;-73
2021/09/22 08:47:44;;;;;;;43.05;31.45;;;15.60;99.90;;;;;;4152955;28;20361;-74
2021/09/22 08:49:46;;;;;;;34.25;30.20;;;15.70;99.90;;;;;;4153178;28;20466;-73
2021/09/22 08:51:47;;;;;;;36.30;28.10;;;15.80;99.90;;;;;;4152823;28;20041;-73
2021/09/22 08:53:48;;;;;;;33.58;28.60;;;16.00;99.90;;;;;;4152103;28;20108;-73
2021/09/22 08:55:49;;;;;;;35.38;26.90;;;16.00;99.90;;;;;;4152298;28;20025;-73
2021/09/22 08:57:49;;;;;;;30.77;25.20;;;16.10;99.90;;;;;;4154148;28;20065;-73
2021/09/22 08:59:50;;;;;;;32.45;25.73;;;16.30;99.90;;;;;;4154744;28;20484;-73
2021/09/22 09:02:23;;;;;;;27.33;23.63;;;16.30;99.90;;;;;;4170058;28;20059;-73
2021/09/22 09:04:25;;;;;;;33.33;24.92;;;16.30;99.90;;;;;;4149579;28;20037;-73
2021/09/22 09:06:37;;;;;;;30.90;23.15;;;16.40;99.90;;;;;;4172489;28;20396;-73
2021/09/22 09:08:41;;;;;;;30.02;22.77;;;16.40;99.90;;;;;;4174935;28;20033;-73
2021/09/22 09:10:41;;;;;;;32.70;25.35;;;16.50;99.90;;;;;;4172607;28;20040;-73
2021/09/22 09:12:42;;;;;;;29.23;23.20;;;16.50;99.90;;;;;;4173438;28;20047;-73
2021/09/22 09:14:50;;;;;;;34.13;22.92;;;16.60;99.90;;;;;;4173209;28;20065;-73
2021/09/22 09:16:52;;;;;;;27.23;23.27;;;16.70;99.90;;;;;;4173644;28;20092;-73
2021/09/22 09:18:55;;;;;;;25.67;21.85;;;16.80;99.90;;;;;;4174813;28;20066;-73
2021/09/22 09:20:55;;;;;;;33.40;22.83;;;17.00;99.90;;;;;;4172859;28;20093;-73
2021/09/22 09:23:05;;;;;;;31.75;23.00;;;17.20;99.90;;;;;;4174316;28;20104;-73
2021/09/22 09:25:06;;;;;;;25.83;21.58;;;17.30;99.90;;;;;;4170853;28;20037;-72
2021/09/22 09:27:10;;;;;;;26.17;22.45;;;17.50;99.90;;;;;;4174558;28;20082;-73
2021/09/22 09:29:10;;;;;;;24.95;21.52;;;17.70;99.90;;;;;;4172861;28;20140;-73
2021/09/22 09:31:11;;;;;;;26.50;22.88;;;18.00;99.90;;;;;;4172498;28;20040;-73
2021/09/22 09:33:34;;;;;;;27.30;22.55;;;18.40;99.90;;;;;;4173195;28;20487;-73
2021/09/22 09:35:34;;;;;;;28.20;22.42;;;18.60;99.90;;;;;;4173102;28;20041;-73
2021/09/22 09:37:44;;;;;;;23.67;20.80;;;18.90;99.90;;;;;;4173448;28;20033;-73
2021/09/22 09:39:44;;;;;;;29.73;20.95;;;19.30;99.90;;;;;;4188282;28;20519;-73
2021/09/22 09:41:51;;;;;;;24.88;20.67;;;19.60;99.90;;;;;;4163725;28;20047;-72
2021/09/22 09:43:52;;;;;;;25.75;21.20;;;19.90;99.90;;;;;;4172770;28;20067;-74
2021/09/22 09:45:53;;;;;;;26.50;20.55;;;20.20;99.90;;;;;;4172561;28;20068;-74
2021/09/22 09:48:08;;;;;;;25.13;21.48;;;20.60;99.90;;;;;;4165752;28;20114;-73
2021/09/22 09:50:18;;;;;;;22.20;19.90;;;20.70;99.90;;;;;;4156988;28;20038;-74
2021/09/22 09:52:20;;;;;;;28.52;20.92;;;20.60;99.90;;;;;;4157044;28;20029;-72
2021/09/22 09:54:26;;;;;;;26.05;21.27;;;20.50;99.90;;;;;;4157129;28;22294;-72
2021/09/22 09:56:30;;;;;;;24.13;20.58;;;20.40;99.90;;;;;;4156691;28;20037;-72
2021/09/22 09:58:43;;;;;;;27.35;20.02;;;20.50;99.90;;;;;;4153793;28;20100;-72
2021/09/22 10:00:46;;;;;;;25.50;19.80;;;20.60;99.90;;;;;;4157302;28;20479;-74
2021/09/22 10:02:46;;;;;;;;;;;20.70;99.90;;;;;;4156571;28;20358;-73
2021/09/22 10:04:47;;;;;;;25.20;20.75;;;20.80;99.90;;;;;;4155821;28;19920;-73
2021/09/22 10:06:49;;;;;;;26.35;19.02;;;21.20;99.90;;;;;;4155523;28;20069;-74
2021/09/22 10:08:49;;;;;;;23.55;20.20;;;21.40;99.90;;;;;;4154694;28;20064;-74
2021/09/22 10:10:51;;;;;;;26.25;20.48;;;21.60;99.90;;;;;;4155865;28;20025;-73
2021/09/22 10:12:53;;;;;;;25.73;19.77;;;21.90;99.90;;;;;;4156472;28;22292;-73
2021/09/22 10:14:54;;;;;;;21.42;18.58;;;22.10;99.90;;;;;;4153938;28;20041;-73
2021/09/22 10:16:55;;;;;;;22.33;18.08;;;22.50;99.90;;;;;;4156093;28;20519;-72